createdAt,value
2023-03-22T00:00:17.133Z,8.67
2023-03-22T00:02:43.832Z,8.64
2023-03-22T00:05:11.674Z,8.64
2023-03-22T00:07:38.394Z,8.59
2023-03-22T00:10:05.849Z,8.55
2023-03-22T00:12:32.349Z,8.52
2023-03-22T00:15:00.118Z,8.48
2023-03-22T00:17:26.600Z,8.46
2023-03-22T00:19:54.559Z,8.43
2023-03-22T00:22:21.777Z,8.39
2023-03-22T00:24:48.365Z,8.37
2023-03-22T00:27:14.940Z,8.38
2023-03-22T00:29:44.388Z,8.35
2023-03-22T00:32:13.989Z,8.33
2023-03-22T00:34:40.663Z,8.33
2023-03-22T00:37:08.060Z,8.30
2023-03-22T00:39:34.641Z,8.28
2023-03-22T00:42:01.465Z,8.28
2023-03-22T00:44:27.992Z,8.27
2023-03-22T00:46:54.526Z,8.27
2023-03-22T00:49:21.947Z,8.25
2023-03-22T00:51:48.475Z,8.26
2023-03-22T00:54:15.992Z,8.24
2023-03-22T00:56:46.434Z,8.24
2023-03-22T00:59:14.345Z,8.22
2023-03-22T01:01:43.008Z,8.18
2023-03-22T01:04:18.188Z,8.15
2023-03-22T01:06:46.994Z,8.12
2023-03-22T01:09:15.094Z,8.11
2023-03-22T01:11:45.934Z,8.13
2023-03-22T01:14:16.777Z,8.14
2023-03-22T01:16:43.359Z,8.14
2023-03-22T01:19:10.102Z,8.14
2023-03-22T01:21:37.794Z,8.09
2023-03-22T01:24:04.514Z,8.09
2023-03-22T01:26:31.323Z,8.08
2023-03-22T01:28:57.845Z,8.07
2023-03-22T01:31:24.525Z,8.07
2023-03-22T01:33:51.398Z,8.08
2023-03-22T01:36:17.974Z,8.08
2023-03-22T01:38:44.663Z,8.09
2023-03-22T01:41:11.748Z,8.08
2023-03-22T01:43:42.225Z,8.09
2023-03-22T01:46:09.690Z,8.08
2023-03-22T01:48:46.263Z,8.08
2023-03-22T01:51:24.813Z,8.12
2023-03-22T01:54:08.955Z,8.15
2023-03-22T01:56:39.094Z,8.17
2023-03-22T01:59:10.170Z,8.17
2023-03-22T02:02:04.608Z,8.18
2023-03-22T02:04:36.671Z,8.19
2023-03-22T02:07:15.186Z,8.20
2023-03-22T02:09:43.352Z,8.20
2023-03-22T02:12:41.758Z,8.20
2023-03-22T02:15:29.736Z,8.20
2023-03-22T02:18:38.921Z,8.19
2023-03-22T02:21:31.802Z,8.19
2023-03-22T02:24:23.475Z,8.20
2023-03-22T02:27:10.562Z,8.19
2023-03-22T02:29:45.123Z,8.19
2023-03-22T02:32:31.824Z,8.18
2023-03-22T02:35:26.439Z,8.16
2023-03-22T02:38:20.484Z,8.18
2023-03-22T02:41:23.797Z,8.20
2023-03-22T02:44:28.056Z,8.19
2023-03-22T02:47:06.857Z,8.20
2023-03-22T02:49:45.978Z,8.20
2023-03-22T02:52:33.470Z,8.20
2023-03-22T02:55:07.760Z,8.20
2023-03-22T02:58:19.546Z,8.19
2023-03-22T03:00:51.157Z,8.20
2023-03-22T03:03:19.913Z,8.22
2023-03-22T03:05:55.524Z,8.22
2023-03-22T03:08:23.922Z,8.24
2023-03-22T03:10:52.611Z,8.28
2023-03-22T03:13:19.362Z,8.32
2023-03-22T03:15:54.309Z,8.37
2023-03-22T03:18:46.107Z,8.36
2023-03-22T03:21:32.629Z,8.37
2023-03-22T03:24:39.805Z,8.37
2023-03-22T03:27:16.882Z,8.36
2023-03-22T03:30:05.806Z,8.37
2023-03-22T03:32:38.296Z,8.38
2023-03-22T03:35:22.384Z,8.37
2023-03-22T03:38:08.740Z,8.35
2023-03-22T03:40:41.216Z,8.34
2023-03-22T03:43:09.790Z,8.36
2023-03-22T03:45:37.689Z,8.37
2023-03-22T03:48:09.146Z,8.38
2023-03-22T03:50:37.605Z,8.40
2023-03-22T03:53:04.502Z,8.41
2023-03-22T03:55:32.127Z,8.43
2023-03-22T03:57:58.632Z,8.46
2023-03-22T04:00:25.343Z,8.47
2023-03-22T04:03:18.244Z,8.51
2023-03-22T04:06:03.764Z,8.51
2023-03-22T04:08:34.665Z,8.52
2023-03-22T04:11:01.773Z,8.53
2023-03-22T04:13:29.786Z,8.52
2023-03-22T04:16:02.076Z,8.54
2023-03-22T04:18:32.125Z,8.56
2023-03-22T04:21:03.429Z,8.57
2023-03-22T04:23:35.570Z,8.57
2023-03-22T04:26:02.150Z,8.60
2023-03-22T04:28:39.133Z,8.64
2023-03-22T04:31:06.878Z,8.64
2023-03-22T04:33:47.297Z,8.66
2023-03-22T04:36:22.989Z,8.66
2023-03-22T04:39:11.627Z,8.69
2023-03-22T04:41:39.438Z,8.69
2023-03-22T04:44:07.327Z,8.70
2023-03-22T04:46:37.828Z,8.69
2023-03-22T04:49:06.717Z,8.69
2023-03-22T04:51:36.801Z,8.69
2023-03-22T04:54:32.570Z,8.66
2023-03-22T04:56:59.247Z,8.69
2023-03-22T04:59:27.925Z,8.72
2023-03-22T05:01:54.715Z,8.74
2023-03-22T05:04:27.141Z,8.75
2023-03-22T05:07:00.392Z,8.74
2023-03-22T05:09:35.740Z,8.74
2023-03-22T05:12:03.843Z,8.73
2023-03-22T05:14:39.546Z,8.68
2023-03-22T05:17:09.880Z,8.67
2023-03-22T05:19:38.652Z,8.65
2023-03-22T05:22:05.317Z,8.64
2023-03-22T05:24:48.613Z,8.65
2023-03-22T05:27:30.908Z,8.64
2023-03-22T05:30:04.631Z,8.62
2023-03-22T05:33:03.208Z,8.59
2023-03-22T05:35:33.958Z,8.57
2023-03-22T05:38:02.442Z,8.56
2023-03-22T05:40:31.626Z,8.53
2023-03-22T05:42:58.374Z,8.52
2023-03-22T05:45:27.291Z,8.52
2023-03-22T05:48:11.121Z,8.52
2023-03-22T05:50:38.614Z,8.50
2023-03-22T05:53:05.784Z,8.50
2023-03-22T05:55:47.762Z,8.47
2023-03-22T05:58:19.100Z,8.47
2023-03-22T06:00:49.902Z,8.47
2023-03-22T06:03:39.788Z,8.47
2023-03-22T06:06:14.335Z,8.47
2023-03-22T06:08:47.922Z,8.51
2023-03-22T06:11:15.561Z,8.52
2023-03-22T06:13:42.052Z,8.54
2023-03-22T06:16:10.103Z,8.57
2023-03-22T06:18:36.780Z,8.59
2023-03-22T06:21:08.462Z,8.64
2023-03-22T06:23:34.999Z,8.64
2023-03-22T06:26:01.492Z,8.64
2023-03-22T06:28:29.850Z,8.66
2023-03-22T06:30:57.684Z,8.68
2023-03-22T06:33:31.343Z,8.75
2023-03-22T06:36:06.561Z,8.89
2023-03-22T06:38:41.194Z,9.16
2023-03-22T06:41:07.662Z,9.36
2023-03-22T06:43:34.269Z,9.57
2023-03-22T06:46:12.168Z,9.63
2023-03-22T06:48:45.814Z,9.61
2023-03-22T06:51:15.241Z,9.60
2023-03-22T06:53:42.334Z,9.56
2023-03-22T06:56:09.719Z,9.54
2023-03-22T06:58:50.171Z,9.56
2023-03-22T07:01:19.305Z,9.62
2023-03-22T07:03:47.824Z,9.65
2023-03-22T07:06:16.440Z,9.64
2023-03-22T07:08:46.786Z,9.63
2023-03-22T07:11:43.125Z,9.66
2023-03-22T07:14:09.649Z,9.64
2023-03-22T07:16:55.021Z,9.64
2023-03-22T07:19:23.102Z,9.62
2023-03-22T07:21:52.583Z,9.62
2023-03-22T07:24:20.308Z,9.63
2023-03-22T07:26:46.927Z,9.61
2023-03-22T07:29:18.432Z,9.64
2023-03-22T07:31:45.785Z,9.69
2023-03-22T07:34:30.496Z,9.76
2023-03-22T07:37:04.271Z,9.88
2023-03-22T07:39:31.513Z,9.91
2023-03-22T07:41:58.495Z,9.92
2023-03-22T07:44:25.220Z,9.98
2023-03-22T07:47:27.188Z,10.06
2023-03-22T07:50:21.134Z,10.19
2023-03-22T07:52:53.129Z,10.17
2023-03-22T07:55:19.771Z,10.17
2023-03-22T07:57:46.487Z,10.19
2023-03-22T08:00:15.629Z,10.19
2023-03-22T08:02:45.968Z,10.25
2023-03-22T08:05:25.506Z,10.39
2023-03-22T08:07:58.923Z,10.54
2023-03-22T08:10:26.930Z,10.68
2023-03-22T08:12:54.420Z,10.78
2023-03-22T08:15:24.021Z,11.00
2023-03-22T08:17:50.886Z,11.06
2023-03-22T08:20:28.053Z,11.02
2023-03-22T08:22:58.977Z,10.96
2023-03-22T08:26:00.847Z,10.90
2023-03-22T08:28:27.814Z,10.88
2023-03-22T08:30:54.251Z,10.81
2023-03-22T08:33:23.653Z,10.82
2023-03-22T08:35:52.314Z,10.84
2023-03-22T08:38:19.631Z,10.88
2023-03-22T08:40:49.893Z,10.89
2023-03-22T08:43:20.959Z,10.92
2023-03-22T08:45:47.587Z,10.98
2023-03-22T08:48:16.313Z,11.02
2023-03-22T08:51:02.390Z,11.11
2023-03-22T08:53:38.859Z,11.20
2023-03-22T08:56:27.342Z,11.29
2023-03-22T08:59:09.867Z,11.26
2023-03-22T09:01:52.683Z,11.22
2023-03-22T09:04:19.464Z,11.15
2023-03-22T09:06:47.059Z,11.06
2023-03-22T09:09:16.240Z,11.02
2023-03-22T09:11:46.199Z,11.00
2023-03-22T09:14:12.853Z,11.00
2023-03-22T09:16:39.715Z,10.99
2023-03-22T09:19:06.783Z,10.95
2023-03-22T09:21:34.110Z,10.97
2023-03-22T09:24:16.570Z,11.00
2023-03-22T09:26:46.840Z,11.00
2023-03-22T09:29:16.423Z,10.96
2023-03-22T09:31:54.905Z,10.92
2023-03-22T09:34:29.133Z,10.89
2023-03-22T09:36:59.287Z,10.87
2023-03-22T09:39:29.826Z,10.86
2023-03-22T09:42:02.434Z,10.84
2023-03-22T09:44:41.546Z,10.80
2023-03-22T09:47:17.856Z,10.69
2023-03-22T09:49:53.801Z,10.61
2023-03-22T09:52:20.769Z,10.58
2023-03-22T09:54:47.549Z,10.51
2023-03-22T09:57:26.250Z,10.43
2023-03-22T10:00:14.851Z,10.37
2023-03-22T10:03:01.744Z,10.29
2023-03-22T10:05:51.300Z,10.27
2023-03-22T10:08:38.936Z,10.30
2023-03-22T10:11:16.102Z,10.29
2023-03-22T10:14:00.753Z,10.29
2023-03-22T10:16:33.147Z,10.31
2023-03-22T10:19:20.735Z,10.30
2023-03-22T10:21:50.492Z,10.29
2023-03-22T10:24:23.646Z,10.32
2023-03-22T10:26:52.258Z,10.29
2023-03-22T10:29:38.348Z,10.32
2023-03-22T10:32:15.868Z,10.34
2023-03-22T10:34:43.516Z,10.34
2023-03-22T10:37:17.310Z,10.34
2023-03-22T10:39:50.712Z,10.35
2023-03-22T10:42:21.755Z,10.34
2023-03-22T10:44:52.666Z,10.29
2023-03-22T10:47:26.963Z,10.24
2023-03-22T10:49:56.250Z,10.19
2023-03-22T10:52:36.940Z,10.14
2023-03-22T10:55:04.772Z,10.13
2023-03-22T10:57:31.465Z,10.15
2023-03-22T10:59:58.461Z,10.14
2023-03-22T11:02:31.694Z,10.15
2023-03-22T11:05:05.866Z,10.19
2023-03-22T11:07:38.089Z,10.20
2023-03-22T11:10:10.489Z,10.25
2023-03-22T11:12:43.642Z,10.26
2023-03-22T11:15:51.990Z,10.34
2023-03-22T11:18:19.434Z,10.35
2023-03-22T11:20:56.914Z,10.34
2023-03-22T11:23:25.803Z,10.32
2023-03-22T11:25:56.427Z,10.33
2023-03-22T11:28:40.638Z,10.38
2023-03-22T11:31:15.844Z,10.38
2023-03-22T11:33:57.502Z,10.39
2023-03-22T11:36:25.053Z,10.41
2023-03-22T11:39:00.601Z,10.46
2023-03-22T11:41:29.811Z,10.44
2023-03-22T11:44:03.266Z,10.46
2023-03-22T11:46:31.647Z,10.47
2023-03-22T11:49:02.478Z,10.47
2023-03-22T11:51:33.375Z,10.52
2023-03-22T11:54:13.389Z,10.52
2023-03-22T11:56:43.408Z,10.53
2023-03-22T11:59:30.335Z,10.52
2023-03-22T12:02:03.334Z,10.49
2023-03-22T12:04:34.491Z,10.47
2023-03-22T12:07:06.419Z,10.46
2023-03-22T12:09:51.915Z,10.46
2023-03-22T12:12:27.104Z,10.44
2023-03-22T12:15:06.766Z,10.44
2023-03-22T12:17:58.982Z,10.46
2023-03-22T12:20:42.379Z,10.50
2023-03-22T12:23:16.325Z,10.51
2023-03-22T12:25:56.980Z,10.53
2023-03-22T12:28:30.017Z,10.56
2023-03-22T12:30:58.477Z,10.57
2023-03-22T12:33:25.367Z,10.56
2023-03-22T12:35:58.105Z,10.55
2023-03-22T12:38:42.768Z,10.55
2023-03-22T12:41:26.433Z,10.54
2023-03-22T12:43:56.101Z,10.54
2023-03-22T12:46:29.093Z,10.57
2023-03-22T12:49:22.314Z,10.56
2023-03-22T12:51:52.220Z,10.57
2023-03-22T12:54:24.053Z,10.58
2023-03-22T12:56:52.754Z,10.60
2023-03-22T12:59:28.783Z,10.61
2023-03-22T13:02:06.205Z,10.62
2023-03-22T13:04:35.869Z,10.63
2023-03-22T13:07:14.413Z,10.66
2023-03-22T13:09:51.467Z,10.68
2023-03-22T13:12:18.052Z,10.70
2023-03-22T13:14:57.966Z,10.71
2023-03-22T13:17:24.889Z,10.66
2023-03-22T13:20:06.779Z,10.65
2023-03-22T13:22:36.447Z,10.65
2023-03-22T13:25:07.200Z,10.67
2023-03-22T13:27:39.708Z,10.67
2023-03-22T13:30:17.107Z,10.69
2023-03-22T13:32:54.607Z,10.69
2023-03-22T13:35:27.834Z,10.70
2023-03-22T13:38:04.673Z,10.71
2023-03-22T13:40:49.012Z,10.72
2023-03-22T13:43:25.329Z,10.73
2023-03-22T13:46:06.709Z,10.72
2023-03-22T13:48:47.035Z,10.74
2023-03-22T13:51:30.099Z,10.73
2023-03-22T13:54:20.622Z,10.74
2023-03-22T13:57:00.999Z,10.73
2023-03-22T13:59:28.047Z,10.74
2023-03-22T14:02:05.383Z,10.77
2023-03-22T14:04:40.797Z,10.78
2023-03-22T14:07:31.416Z,10.79
2023-03-22T14:10:03.456Z,10.78
2023-03-22T14:12:53.688Z,10.78
2023-03-22T14:15:24.156Z,10.84
2023-03-22T14:18:04.247Z,10.87
2023-03-22T14:20:35.666Z,10.91
